createdAt,value
2019-03-25T00:01:20.373Z,98696.23
2019-03-25T00:03:51.117Z,98690.00
2019-03-25T00:06:21.722Z,98695.96
2019-03-25T00:09:04.477Z,98691.95
2019-03-25T00:11:24.752Z,98694.83
2019-03-25T00:13:55.350Z,98694.02
2019-03-25T00:16:25.778Z,98700.34
2019-03-25T00:18:56.464Z,98700.16
2019-03-25T00:21:27.282Z,98699.87
2019-03-25T00:23:58.209Z,98694.12
2019-03-25T00:26:29.081Z,98692.88
2019-03-25T00:28:59.633Z,98694.52
2019-03-25T00:31:31.095Z,98693.22
2019-03-25T00:34:01.801Z,98689.47
2019-03-25T00:36:32.277Z,98687.03
2019-03-25T00:39:03.926Z,98691.82
2019-03-25T00:41:34.973Z,98696.70
2019-03-25T00:44:05.651Z,98696.61
2019-03-25T00:46:36.582Z,98703.64
2019-03-25T00:49:07.288Z,98695.84
2019-03-25T00:51:37.945Z,98697.43
2019-03-25T00:54:08.485Z,98697.91
2019-03-25T00:56:39.188Z,98693.64
2019-03-25T00:59:10.537Z,98690.71
2019-03-25T01:01:41.335Z,98687.44
2019-03-25T01:04:11.810Z,98681.59
2019-03-25T01:06:42.434Z,98682.23
2019-03-25T01:09:13.380Z,98678.95
2019-03-25T01:11:49.215Z,98677.42
2019-03-25T01:14:18.272Z,98679.38
2019-03-25T01:16:48.832Z,98677.97
2019-03-25T01:19:19.561Z,98674.95
2019-03-25T01:21:50.147Z,98678.88
2019-03-25T01:24:20.792Z,98692.27
2019-03-25T01:26:51.333Z,98687.14
2019-03-25T01:29:21.942Z,98688.91
2019-03-25T01:31:52.425Z,98681.69
2019-03-25T01:34:23.075Z,98673.78
2019-03-25T01:36:53.641Z,98672.27
2019-03-25T01:39:24.264Z,98665.56
2019-03-25T01:41:54.958Z,98663.61
2019-03-25T01:44:25.462Z,98657.06
2019-03-25T01:46:56.062Z,98656.75
2019-03-25T01:49:26.767Z,98667.25
2019-03-25T01:51:57.192Z,98660.93
2019-03-25T01:54:27.793Z,98654.12
2019-03-25T01:56:59.234Z,98662.58
2019-03-25T01:59:29.780Z,98658.70
2019-03-25T02:02:00.142Z,98654.32
2019-03-25T02:04:30.682Z,98656.66
2019-03-25T02:07:01.582Z,98658.08
2019-03-25T02:09:32.202Z,98659.94
2019-03-25T02:12:02.873Z,98665.80
2019-03-25T02:14:33.722Z,98667.19
2019-03-25T02:17:05.203Z,98664.21
2019-03-25T02:19:36.504Z,98661.72
2019-03-25T02:22:06.980Z,98666.11
2019-03-25T02:24:37.551Z,98668.27
2019-03-25T02:27:08.176Z,98665.25
2019-03-25T02:29:38.851Z,98666.23
2019-03-25T02:32:12.064Z,98665.59
2019-03-25T02:34:42.654Z,98670.02
2019-03-25T02:37:13.351Z,98664.95
2019-03-25T02:39:43.892Z,98669.20
2019-03-25T02:42:14.677Z,98662.75
2019-03-25T02:44:46.007Z,98663.31
2019-03-25T02:47:17.057Z,98660.52
2019-03-25T02:49:47.562Z,98659.95
2019-03-25T02:52:18.073Z,98660.41
2019-03-25T02:54:48.615Z,98664.28
2019-03-25T02:57:19.371Z,98666.86
2019-03-25T02:59:50.171Z,98667.65
2019-03-25T03:02:20.897Z,98667.65
2019-03-25T03:04:51.656Z,98660.11
2019-03-25T03:07:22.259Z,98668.67
2019-03-25T03:09:53.099Z,98663.47
2019-03-25T03:12:23.839Z,98665.27
2019-03-25T03:14:54.816Z,98669.22
2019-03-25T03:17:25.412Z,98671.21
2019-03-25T03:19:55.931Z,98665.66
2019-03-25T03:22:26.711Z,98670.43
2019-03-25T03:24:57.507Z,98669.61
2019-03-25T03:27:29.904Z,98679.46
2019-03-25T03:30:00.811Z,98671.72
2019-03-25T03:32:32.444Z,98683.37
2019-03-25T03:35:03.038Z,98679.55
2019-03-25T03:37:33.780Z,98682.56
2019-03-25T03:40:04.472Z,98681.63
2019-03-25T03:42:35.410Z,98678.36
2019-03-25T03:45:06.222Z,98675.61
2019-03-25T03:47:37.193Z,98668.91
2019-03-25T03:50:08.075Z,98677.22
2019-03-25T03:52:38.751Z,98676.48
2019-03-25T03:55:09.265Z,98686.12
2019-03-25T03:57:39.943Z,98679.41
2019-03-25T04:00:14.500Z,98679.61
2019-03-25T04:02:45.285Z,98675.08
2019-03-25T04:05:16.435Z,98683.47
2019-03-25T04:07:46.834Z,98684.33
2019-03-25T04:10:18.249Z,98693.20
2019-03-25T04:12:48.902Z,98699.75
2019-03-25T04:15:26.805Z,98690.03
2019-03-25T04:17:58.046Z,98687.27
2019-03-25T04:20:28.925Z,98685.08
2019-03-25T04:22:59.801Z,98687.84
2019-03-25T04:25:30.689Z,98688.06
2019-03-25T04:28:01.187Z,98691.20
2019-03-25T04:30:31.725Z,98684.10
2019-03-25T04:33:03.167Z,98683.88
2019-03-25T04:35:34.377Z,98681.34
2019-03-25T04:38:05.180Z,98694.29
2019-03-25T04:40:36.649Z,98697.95
2019-03-25T04:43:07.491Z,98694.21
2019-03-25T04:45:38.210Z,98685.66
2019-03-25T04:48:08.677Z,98687.16
2019-03-25T04:50:39.828Z,98687.84
2019-03-25T04:53:10.722Z,98687.66
2019-03-25T04:55:41.163Z,98677.11
2019-03-25T04:58:11.889Z,98686.40
2019-03-25T05:00:43.953Z,98687.55
2019-03-25T05:03:15.422Z,98690.30
2019-03-25T05:05:46.087Z,98679.44
2019-03-25T05:08:20.103Z,98683.94
2019-03-25T05:10:51.384Z,98676.87
2019-03-25T05:13:24.952Z,98681.55
2019-03-25T05:15:55.853Z,98683.96
2019-03-25T05:18:30.796Z,98676.49
2019-03-25T05:21:01.492Z,98686.64
2019-03-25T05:23:31.971Z,98685.97
2019-03-25T05:26:05.740Z,98685.73
2019-03-25T05:28:36.685Z,98682.87
2019-03-25T05:31:07.391Z,98674.58
2019-03-25T05:33:38.190Z,98674.39
2019-03-25T05:36:08.815Z,98680.21
2019-03-25T05:38:39.231Z,98677.77
2019-03-25T05:41:10.267Z,98680.20
2019-03-25T05:43:42.968Z,98674.45
2019-03-25T05:46:14.066Z,98675.97
2019-03-25T05:48:44.647Z,98677.55
2019-03-25T05:51:15.299Z,98683.86
2019-03-25T05:53:46.081Z,98684.63
2019-03-25T05:56:20.295Z,98677.58
2019-03-25T05:58:55.396Z,98684.00
2019-03-25T06:01:29.576Z,98679.56
2019-03-25T06:04:00.548Z,98687.14
2019-03-25T06:06:31.386Z,98678.41
2019-03-25T06:09:02.086Z,98681.69
2019-03-25T06:11:32.804Z,98680.58
2019-03-25T06:14:03.446Z,98674.80
2019-03-25T06:16:34.089Z,98674.66
2019-03-25T06:19:05.563Z,98671.05
2019-03-25T06:21:36.194Z,98675.20
2019-03-25T06:24:08.666Z,98671.47
2019-03-25T06:26:39.315Z,98676.02
2019-03-25T06:29:10.183Z,98679.14
2019-03-25T06:31:40.658Z,98679.19
2019-03-25T06:34:11.369Z,98677.73
2019-03-25T06:36:42.231Z,98672.97
2019-03-25T06:39:12.762Z,98670.76
2019-03-25T06:41:43.518Z,98674.38
2019-03-25T06:44:14.245Z,98674.59
2019-03-25T06:46:45.187Z,98667.02
2019-03-25T06:49:16.172Z,98670.13
2019-03-25T06:51:46.975Z,98665.09
2019-03-25T06:54:17.715Z,98671.12
2019-03-25T06:56:49.663Z,98667.42
2019-03-25T06:59:20.577Z,98671.89
2019-03-25T07:01:51.644Z,98665.25
2019-03-25T07:04:22.775Z,98670.25
2019-03-25T07:06:53.934Z,98668.89
2019-03-25T07:09:24.781Z,98670.52
2019-03-25T07:11:55.340Z,98671.69
2019-03-25T07:14:29.949Z,98665.45
2019-03-25T07:17:00.395Z,98666.53
2019-03-25T07:19:31.761Z,98675.80
2019-03-25T07:22:03.055Z,98682.04
2019-03-25T07:24:34.437Z,98676.18
2019-03-25T07:27:06.003Z,98672.41
2019-03-25T07:29:36.658Z,98664.64
2019-03-25T07:32:09.228Z,98664.70
2019-03-25T07:34:41.313Z,98661.94
2019-03-25T07:37:15.780Z,98669.59
2019-03-25T07:39:49.286Z,98662.43
2019-03-25T07:42:20.402Z,98665.27
2019-03-25T07:44:51.348Z,98671.33
2019-03-25T07:47:22.665Z,98670.16
2019-03-25T07:49:54.904Z,98673.98
2019-03-25T07:52:26.350Z,98668.34
2019-03-25T07:54:57.576Z,98672.73
2019-03-25T07:57:29.020Z,98671.00
2019-03-25T08:00:00.882Z,98669.02
2019-03-25T08:02:32.408Z,98666.46
2019-03-25T08:05:03.524Z,98671.42
2019-03-25T08:07:35.154Z,98673.81
2019-03-25T08:10:08.413Z,98673.51
2019-03-25T08:12:39.551Z,98672.75
2019-03-25T08:15:12.039Z,98669.71
2019-03-25T08:17:44.246Z,98663.59
2019-03-25T08:20:17.268Z,98662.15
2019-03-25T08:22:50.443Z,98667.95
2019-03-25T08:25:21.259Z,98661.31
2019-03-25T08:27:59.863Z,98660.48
2019-03-25T08:30:27.171Z,98657.67
2019-03-25T08:32:57.963Z,98656.36
2019-03-25T08:35:29.304Z,98654.77
2019-03-25T08:38:00.293Z,98658.28
2019-03-25T08:40:30.898Z,98656.53
2019-03-25T08:43:02.015Z,98657.35
2019-03-25T08:45:32.754Z,98657.83
2019-03-25T08:48:03.688Z,98654.45
2019-03-25T08:50:35.930Z,98653.67
2019-03-25T08:53:07.205Z,98652.30
2019-03-25T08:55:41.305Z,98659.64
2019-03-25T08:58:15.327Z,98661.95
2019-03-25T09:00:50.569Z,98656.11
2019-03-25T09:03:23.382Z,98661.55
2019-03-25T09:05:54.312Z,98654.81
2019-03-25T09:08:25.284Z,98660.47
2019-03-25T09:10:56.027Z,98651.44
2019-03-25T09:13:26.627Z,98653.52
2019-03-25T09:15:57.268Z,98644.99
2019-03-25T09:18:28.688Z,98645.44
2019-03-25T09:20:59.371Z,98644.98
2019-03-25T09:23:29.938Z,98642.66
2019-03-25T09:26:00.680Z,98647.91
2019-03-25T09:28:31.506Z,98641.09
2019-03-25T09:31:09.757Z,98634.66
2019-03-25T09:33:41.386Z,98627.70
2019-03-25T09:36:12.132Z,98624.67
2019-03-25T09:38:43.045Z,98612.13
2019-03-25T09:41:15.015Z,98616.36
2019-03-25T09:43:45.950Z,98615.91
2019-03-25T09:46:17.132Z,98616.36
2019-03-25T09:48:47.833Z,98607.61
2019-03-25T09:51:18.770Z,98613.52
2019-03-25T09:53:51.538Z,98603.68
2019-03-25T09:56:23.510Z,98604.26
2019-03-25T09:58:54.249Z,98610.98
2019-03-25T10:01:24.788Z,98606.07
2019-03-25T10:03:56.913Z,98602.21
2019-03-25T10:06:27.649Z,98613.02
2019-03-25T10:08:59.608Z,98603.99
2019-03-25T10:11:31.795Z,98606.31
2019-03-25T10:14:04.505Z,98611.53
2019-03-25T10:16:35.587Z,98606.52
2019-03-25T10:19:06.511Z,98601.88
2019-03-25T10:21:37.377Z,98604.11
2019-03-25T10:24:08.607Z,98598.83
2019-03-25T10:26:40.421Z,98599.31
2019-03-25T10:29:13.618Z,98603.52
2019-03-25T10:31:44.337Z,98604.37
2019-03-25T10:34:18.411Z,98602.91
2019-03-25T10:36:52.959Z,98603.14
2019-03-25T10:39:23.123Z,98594.78
2019-03-25T10:41:55.940Z,98600.66
2019-03-25T10:44:27.723Z,98601.73
2019-03-25T10:46:58.538Z,98595.91
2019-03-25T10:49:29.683Z,98593.78
2019-03-25T10:52:09.936Z,98580.06
2019-03-25T10:54:40.865Z,98593.86
2019-03-25T10:57:11.630Z,98586.84
2019-03-25T10:59:43.173Z,98577.45
2019-03-25T11:02:14.064Z,98582.01
2019-03-25T11:04:44.979Z,98576.23
2019-03-25T11:07:16.156Z,98579.23
2019-03-25T11:09:47.105Z,98577.46
2019-03-25T11:12:17.507Z,98569.24
2019-03-25T11:14:48.063Z,98570.80
2019-03-25T11:17:18.478Z,98566.50
2019-03-25T11:19:48.902Z,98574.88
2019-03-25T11:22:19.697Z,98569.00
2019-03-25T11:24:50.626Z,98566.34
2019-03-25T11:27:21.127Z,98570.44
2019-03-25T11:29:51.856Z,98563.52
2019-03-25T11:32:22.302Z,98575.81
2019-03-25T11:34:52.942Z,98567.39
2019-03-25T11:37:23.662Z,98563.58
2019-03-25T11:39:54.538Z,98567.73
2019-03-25T11:42:25.150Z,98562.77
2019-03-25T11:44:56.241Z,98559.87
2019-03-25T11:47:26.935Z,98560.06
2019-03-25T11:49:57.463Z,98557.43
2019-03-25T11:52:28.015Z,98565.44
2019-03-25T11:54:58.734Z,98567.20
2019-03-25T11:57:29.331Z,98557.70
2019-03-25T11:59:59.794Z,98558.91
2019-03-25T12:02:30.541Z,98566.61
2019-03-25T12:05:01.067Z,98559.45
2019-03-25T12:07:32.229Z,98576.15
2019-03-25T12:10:03.232Z,98569.52
2019-03-25T12:12:34.194Z,98557.41
2019-03-25T12:15:04.987Z,98562.43
2019-03-25T12:17:35.693Z,98561.59
2019-03-25T12:20:06.708Z,98565.97
2019-03-25T12:22:38.545Z,98562.11
2019-03-25T12:25:11.965Z,98554.15
2019-03-25T12:27:42.912Z,98557.03
2019-03-25T12:30:13.616Z,98558.61
2019-03-25T12:32:44.685Z,98560.17
2019-03-25T12:35:15.362Z,98567.99
2019-03-25T12:37:45.803Z,98555.44
2019-03-25T12:40:16.481Z,98554.63
2019-03-25T12:42:47.023Z,98551.11
2019-03-25T12:45:17.756Z,98557.66
2019-03-25T12:47:48.150Z,98551.21
2019-03-25T12:50:18.625Z,98556.41
2019-03-25T12:52:49.750Z,98555.84
2019-03-25T12:55:20.596Z,98558.05
2019-03-25T12:57:51.235Z,98560.25
2019-03-25T13:00:46.905Z,98556.13
2019-03-25T13:03:17.946Z,98559.27
2019-03-25T13:05:48.842Z,98559.72
2019-03-25T13:08:19.597Z,98557.70
2019-03-25T13:10:49.822Z,98558.13
2019-03-25T13:13:20.487Z,98553.39
2019-03-25T13:15:51.242Z,98565.33
2019-03-25T13:18:21.804Z,98557.07
2019-03-25T13:20:52.441Z,98545.76
2019-03-25T13:23:23.399Z,98558.59
2019-03-25T13:25:54.315Z,98565.06
2019-03-25T13:28:24.854Z,98564.55
2019-03-25T13:30:57.231Z,98568.98
2019-03-25T13:33:29.433Z,98575.25
2019-03-25T13:36:00.496Z,98572.35
2019-03-25T13:38:31.370Z,98579.25
2019-03-25T13:41:01.942Z,98571.13
2019-03-25T13:43:32.745Z,98574.70
2019-03-25T13:46:05.760Z,98572.29
2019-03-25T13:48:36.231Z,98577.64
2019-03-25T13:51:07.152Z,98571.78
2019-03-25T13:53:37.689Z,98572.69
2019-03-25T13:56:08.174Z,98563.27
2019-03-25T13:58:38.614Z,98562.55
2019-03-25T14:01:09.522Z,98567.64
2019-03-25T14:03:40.271Z,98567.93
2019-03-25T14:06:11.374Z,98569.64
2019-03-25T14:08:41.929Z,98576.55
2019-03-25T14:11:12.573Z,98570.75
2019-03-25T14:13:49.509Z,98568.25
2019-03-25T14:16:18.059Z,98576.17
2019-03-25T14:18:48.480Z,98582.50
2019-03-25T14:21:19.199Z,98583.63
2019-03-25T14:23:49.884Z,98588.35
2019-03-25T14:26:20.286Z,98590.02
2019-03-25T14:28:50.843Z,98590.86
2019-03-25T14:31:22.549Z,98593.23
2019-03-25T14:33:53.603Z,98588.74
2019-03-25T14:36:24.884Z,98600.18
2019-03-25T14:38:55.373Z,98598.53
2019-03-25T14:41:26.237Z,98593.77
2019-03-25T14:43:56.949Z,98595.53
2019-03-25T14:46:28.791Z,98593.42
2019-03-25T14:49:03.327Z,98591.02
2019-03-25T14:51:37.487Z,98594.89
2019-03-25T14:54:08.243Z,98597.75
2019-03-25T14:56:38.897Z,98606.20
2019-03-25T14:59:09.383Z,98601.45
2019-03-25T15:01:40.166Z,98602.47
2019-03-25T15:04:10.723Z,98598.16
2019-03-25T15:06:41.620Z,98604.23
2019-03-25T15:09:12.425Z,98605.32
2019-03-25T15:11:43.244Z,98607.09
2019-03-25T15:14:14.309Z,98610.04
2019-03-25T15:16:46.585Z,98615.72
2019-03-25T15:19:17.082Z,98609.61
2019-03-25T15:21:50.088Z,98612.88
2019-03-25T15:24:20.929Z,98610.44
2019-03-25T15:26:51.512Z,98610.92
2019-03-25T15:29:21.980Z,98614.55
2019-03-25T15:31:53.479Z,98611.38
2019-03-25T15:34:24.128Z,98618.06
2019-03-25T15:36:54.606Z,98610.23
2019-03-25T15:39:26.177Z,98609.42
2019-03-25T15:41:57.113Z,98608.81
2019-03-25T15:44:27.812Z,98611.13
2019-03-25T15:46:58.341Z,98608.02
2019-03-25T15:49:29.770Z,98611.72
2019-03-25T15:52:00.131Z,98616.64
2019-03-25T15:54:31.131Z,98613.34
2019-03-25T15:57:01.701Z,98612.84
2019-03-25T15:59:32.615Z,98610.11
2019-03-25T16:02:03.571Z,98616.04
2019-03-25T16:04:35.042Z,98612.22
2019-03-25T16:07:06.705Z,98612.69
2019-03-25T16:09:37.851Z,98616.28
2019-03-25T16:12:14.730Z,98622.28
2019-03-25T16:14:45.209Z,98619.17
2019-03-25T16:17:15.985Z,98616.83
2019-03-25T16:19:46.492Z,98619.22
2019-03-25T16:22:17.069Z,98623.81
2019-03-25T16:24:47.488Z,98617.08
2019-03-25T16:27:18.546Z,98622.22
2019-03-25T16:29:49.375Z,98619.84
2019-03-25T16:32:20.567Z,98624.31
2019-03-25T16:34:51.645Z,98624.02
2019-03-25T16:37:22.588Z,98626.84
2019-03-25T16:39:56.718Z,98628.52
2019-03-25T16:42:27.148Z,98630.08
2019-03-25T16:44:59.008Z,98633.47
2019-03-25T16:47:29.680Z,98626.33
2019-03-25T16:50:00.350Z,98638.04
2019-03-25T16:52:31.382Z,98633.77
2019-03-25T16:55:03.118Z,98633.98
2019-03-25T16:57:33.838Z,98635.95
2019-03-25T17:00:05.054Z,98636.89
2019-03-25T17:02:36.077Z,98633.31
2019-03-25T17:05:07.565Z,98641.64
2019-03-25T17:07:39.130Z,98644.87
2019-03-25T17:10:09.897Z,98644.17
2019-03-25T17:12:40.812Z,98645.02
2019-03-25T17:15:12.077Z,98638.52
2019-03-25T17:17:46.609Z,98633.09
2019-03-25T17:20:17.439Z,98637.92
2019-03-25T17:22:48.652Z,98638.14
2019-03-25T17:25:19.839Z,98640.99
2019-03-25T17:27:52.027Z,98639.61
2019-03-25T17:30:23.018Z,98645.88
2019-03-25T17:32:54.170Z,98642.42
2019-03-25T17:35:25.005Z,98650.23
2019-03-25T17:37:56.135Z,98648.11
2019-03-25T17:40:27.501Z,98650.41
2019-03-25T17:42:58.581Z,98651.08
2019-03-25T17:45:31.254Z,98652.61
2019-03-25T17:48:05.071Z,98652.16
2019-03-25T17:50:35.431Z,98656.44
2019-03-25T17:53:06.175Z,98653.84
2019-03-25T17:55:37.069Z,98655.14
2019-03-25T17:58:11.658Z,98650.02
2019-03-25T18:01:32.561Z,98650.16
2019-03-25T18:04:01.162Z,98650.23
2019-03-25T18:06:33.638Z,98645.63
2019-03-25T18:09:08.915Z,98653.75
2019-03-25T18:11:42.640Z,98650.75
2019-03-25T18:14:13.741Z,98660.23
2019-03-25T18:16:47.138Z,98658.39
2019-03-25T18:19:20.850Z,98663.11
2019-03-25T18:21:51.440Z,98657.39
2019-03-25T18:24:21.966Z,98659.69
2019-03-25T18:26:54.329Z,98660.44
2019-03-25T18:29:26.133Z,98663.05
2019-03-25T18:31:56.589Z,98664.86
2019-03-25T18:34:27.918Z,98658.12
2019-03-25T18:36:58.836Z,98662.25
2019-03-25T18:39:30.678Z,98655.96
2019-03-25T18:42:04.638Z,98658.25
2019-03-25T18:44:35.631Z,98658.63
2019-03-25T18:47:07.354Z,98659.27
2019-03-25T18:49:38.498Z,98651.23
2019-03-25T18:52:09.488Z,98649.78
2019-03-25T18:54:43.105Z,98657.40
2019-03-25T18:57:16.253Z,98658.58
2019-03-25T18:59:49.519Z,98658.84
2019-03-25T19:02:20.317Z,98659.52
2019-03-25T19:04:50.942Z,98668.36
2019-03-25T19:07:24.646Z,98665.45
2019-03-25T19:09:57.894Z,98663.95
2019-03-25T19:12:28.648Z,98663.03
2019-03-25T19:14:59.126Z,98661.73
2019-03-25T19:17:30.117Z,98660.05
2019-03-25T19:20:00.645Z,98660.44
2019-03-25T19:22:31.372Z,98666.01
2019-03-25T19:25:01.977Z,98665.94
2019-03-25T19:27:32.586Z,98667.55
2019-03-25T19:30:03.982Z,98664.89
2019-03-25T19:32:37.818Z,98670.09
2019-03-25T19:35:08.402Z,98674.42
2019-03-25T19:37:38.731Z,98670.02
2019-03-25T19:40:09.688Z,98671.19
2019-03-25T19:42:40.410Z,98669.04
2019-03-25T19:45:12.847Z,98672.69
2019-03-25T19:47:43.443Z,98666.42
2019-03-25T19:50:14.139Z,98664.33
2019-03-25T19:52:45.392Z,98661.62
2019-03-25T19:55:16.229Z,98656.11
2019-03-25T19:57:46.681Z,98662.53
2019-03-25T20:00:22.546Z,98666.30
2019-03-25T20:02:52.854Z,98662.78
2019-03-25T20:05:23.452Z,98663.90
2019-03-25T20:07:54.303Z,98657.47
2019-03-25T20:10:32.506Z,98660.22
2019-03-25T20:13:03.257Z,98659.05
2019-03-25T20:15:45.600Z,98658.80
2019-03-25T20:18:06.821Z,98655.10
2019-03-25T20:20:37.801Z,98658.05
2019-03-25T20:23:11.364Z,98661.75
2019-03-25T20:25:41.812Z,98653.27
2019-03-25T20:28:12.124Z,98654.18
2019-03-25T20:30:42.662Z,98651.91
2019-03-25T20:33:13.320Z,98648.58
2019-03-25T20:35:43.914Z,98653.30
2019-03-25T20:38:14.945Z,98648.73
2019-03-25T20:40:45.337Z,98646.70
2019-03-25T20:43:16.097Z,98643.75
2019-03-25T20:45:46.626Z,98646.53
2019-03-25T20:48:17.182Z,98648.45
2019-03-25T20:50:47.882Z,98650.98
2019-03-25T20:53:19.981Z,98643.13
2019-03-25T20:55:51.302Z,98646.72
2019-03-25T20:58:21.871Z,98645.86
2019-03-25T21:00:55.369Z,98642.69
2019-03-25T21:03:25.886Z,98637.94
2019-03-25T21:05:56.273Z,98642.94
2019-03-25T21:08:26.618Z,98644.34
2019-03-25T21:10:57.077Z,98643.98
2019-03-25T21:13:28.045Z,98642.69
2019-03-25T21:15:58.514Z,98647.48
2019-03-25T21:18:28.998Z,98642.42
2019-03-25T21:20:59.497Z,98642.90
2019-03-25T21:23:30.154Z,98648.20
2019-03-25T21:26:00.879Z,98642.95
2019-03-25T21:28:31.599Z,98643.33
2019-03-25T21:31:02.152Z,98640.30
2019-03-25T21:33:32.806Z,98639.91
2019-03-25T21:36:03.265Z,98638.39
2019-03-25T21:38:33.927Z,98641.75
2019-03-25T21:41:04.219Z,98647.25
2019-03-25T21:43:35.281Z,98642.05
2019-03-25T21:46:05.889Z,98639.29
2019-03-25T21:48:36.446Z,98637.83
2019-03-25T21:51:07.080Z,98635.85
2019-03-25T21:53:37.834Z,98624.47
2019-03-25T21:56:08.323Z,98630.25
2019-03-25T21:58:39.774Z,98623.14
2019-03-25T22:01:10.392Z,98630.34
2019-03-25T22:03:40.786Z,98621.82
2019-03-25T22:06:11.391Z,98617.17
2019-03-25T22:08:42.033Z,98618.54
2019-03-25T22:11:12.691Z,98618.16
2019-03-25T22:13:43.179Z,98614.78
2019-03-25T22:16:13.675Z,98617.08
2019-03-25T22:18:44.189Z,98612.42
2019-03-25T22:21:14.661Z,98615.33
2019-03-25T22:23:44.927Z,98613.17
2019-03-25T22:26:15.519Z,98614.95
2019-03-25T22:28:46.120Z,98610.20
2019-03-25T22:31:17.394Z,98605.92
2019-03-25T22:33:47.947Z,98608.59
2019-03-25T22:36:18.890Z,98603.67
2019-03-25T22:38:49.289Z,98599.71
2019-03-25T22:41:20.008Z,98600.30
2019-03-25T22:43:50.320Z,98596.64
2019-03-25T22:46:20.678Z,98590.34
2019-03-25T22:48:50.927Z,98589.28
2019-03-25T22:51:21.406Z,98591.17
2019-03-25T22:53:51.838Z,98583.98
2019-03-25T22:56:22.050Z,98582.31
2019-03-25T22:58:52.549Z,98586.72
2019-03-25T23:01:23.334Z,98580.78
2019-03-25T23:03:53.720Z,98582.96
2019-03-25T23:06:25.045Z,98581.77
2019-03-25T23:08:55.498Z,98573.25
2019-03-25T23:11:25.784Z,98575.16
2019-03-25T23:13:56.145Z,98574.86
2019-03-25T23:16:26.712Z,98569.42
2019-03-25T23:18:56.973Z,98562.62
2019-03-25T23:21:27.283Z,98559.23
2019-03-25T23:23:57.744Z,98557.11
2019-03-25T23:26:28.382Z,98557.11
2019-03-25T23:28:58.996Z,98559.71
2019-03-25T23:31:29.534Z,98554.52
2019-03-25T23:33:59.863Z,98553.22
2019-03-25T23:36:30.670Z,98557.62
2019-03-25T23:39:01.559Z,98553.42
2019-03-25T23:41:32.120Z,98550.89
2019-03-25T23:44:02.443Z,98546.14
2019-03-25T23:46:33.026Z,98551.44
2019-03-25T23:49:03.473Z,98553.56
2019-03-25T23:51:34.134Z,98549.22
2019-03-25T23:54:16.353Z,98550.89
2019-03-25T23:56:46.821Z,98543.55
2019-03-25T23:59:17.411Z,98544.47
